sensor_id;sensor_type;location;lat;lon;timestamp;pressure;altitude;pressure_sealevel;temperature;humidity
40994;BME280;26722;43.212;27.932;2023-04-23T00:01:39;55179.44;;;-146.72;75.72
40994;BME280;26722;43.212;27.932;2023-04-23T00:04:07;55175.22;;;-146.72;75.75
40994;BME280;26722;43.212;27.932;2023-04-23T00:06:34;55175.22;;;-146.72;75.86
40994;BME280;26722;43.212;27.932;2023-04-23T00:09:00;55183.66;;;-146.72;76.04
40994;BME280;26722;43.212;27.932;2023-04-23T00:11:26;55185.75;;;-146.72;75.86
40994;BME280;26722;43.212;27.932;2023-04-23T00:13:52;55204.75;;;-146.72;76.25
40994;BME280;26722;43.212;27.932;2023-04-23T00:16:19;55185.75;;;-146.72;75.62
40994;BME280;26722;43.212;27.932;2023-04-23T00:18:45;55192.09;;;-146.72;75.04
40994;BME280;26722;43.212;27.932;2023-04-23T00:21:11;55177.31;;;-146.72;75.32
40994;BME280;26722;43.212;27.932;2023-04-23T00:23:37;55185.75;;;-146.72;75.23
40994;BME280;26722;43.212;27.932;2023-04-23T00:26:03;55185.75;;;-146.72;75.69
40994;BME280;26722;43.212;27.932;2023-04-23T00:28:28;55194.22;;;-146.72;75.66
40994;BME280;26722;43.212;27.932;2023-04-23T00:30:54;55181.53;;;-146.72;75.54
40994;BME280;26722;43.212;27.932;2023-04-23T00:33:19;55209.00;;;-146.72;75.22
40994;BME280;26722;43.212;27.932;2023-04-23T00:35:45;55183.66;;;-146.72;75.70
40994;BME280;26722;43.212;27.932;2023-04-23T00:38:10;55200.53;;;-146.72;75.55
40994;BME280;26722;43.212;27.932;2023-04-23T00:40:36;55179.44;;;-146.72;75.65
40994;BME280;26722;43.212;27.932;2023-04-23T00:43:01;55209.00;;;-146.72;75.83
40994;BME280;26722;43.212;27.932;2023-04-23T00:45:27;55187.88;;;-146.72;76.12
40994;BME280;26722;43.212;27.932;2023-04-23T00:47:52;55198.44;;;-146.72;76.42
40994;BME280;26722;43.212;27.932;2023-04-23T00:50:18;55187.88;;;-146.72;76.69
40994;BME280;26722;43.212;27.932;2023-04-23T00:52:45;55183.66;;;-146.72;76.74
40994;BME280;26722;43.212;27.932;2023-04-23T00:55:10;55179.44;;;-146.72;76.72
40994;BME280;26722;43.212;27.932;2023-04-23T00:57:37;55183.66;;;-146.72;77.33
40994;BME280;26722;43.212;27.932;2023-04-23T01:00:04;55187.88;;;-146.72;77.86
40994;BME280;26722;43.212;27.932;2023-04-23T01:02:30;55194.22;;;-146.72;78.44
40994;BME280;26722;43.212;27.932;2023-04-23T01:04:57;55187.88;;;-146.72;78.57
40994;BME280;26722;43.212;27.932;2023-04-23T01:07:24;55192.09;;;-146.72;78.87
40994;BME280;26722;43.212;27.932;2023-04-23T01:09:51;55170.97;;;-146.72;79.06
40994;BME280;26722;43.212;27.932;2023-04-23T01:12:17;55181.53;;;-146.72;79.75
40994;BME280;26722;43.212;27.932;2023-04-23T01:14:43;55200.53;;;-146.72;80.48
40994;BME280;26722;43.212;27.932;2023-04-23T01:17:09;55196.31;;;-146.72;80.66
40994;BME280;26722;43.212;27.932;2023-04-23T01:19:36;55213.22;;;-146.72;81.10
40994;BME280;26722;43.212;27.932;2023-04-23T01:22:07;55196.31;;;-146.72;81.69
40994;BME280;26722;43.212;27.932;2023-04-23T01:24:33;55183.66;;;-146.72;81.52
40994;BME280;26722;43.212;27.932;2023-04-23T01:26:58;55192.09;;;-146.72;81.61
40994;BME280;26722;43.212;27.932;2023-04-23T01:29:24;55183.66;;;-146.72;81.84
40994;BME280;26722;43.212;27.932;2023-04-23T01:31:50;55202.66;;;-146.72;81.74
40994;BME280;26722;43.212;27.932;2023-04-23T01:34:16;55187.88;;;-146.72;81.88
40994;BME280;26722;43.212;27.932;2023-04-23T01:36:43;55187.88;;;-146.72;81.88
40994;BME280;26722;43.212;27.932;2023-04-23T01:39:09;55209.00;;;-146.72;82.46
40994;BME280;26722;43.212;27.932;2023-04-23T01:41:35;55200.53;;;-146.72;82.29
40994;BME280;26722;43.212;27.932;2023-04-23T01:44:01;55187.88;;;-146.72;81.70
40994;BME280;26722;43.212;27.932;2023-04-23T01:46:27;55194.22;;;-146.72;81.53
40994;BME280;26722;43.212;27.932;2023-04-23T01:48:52;55192.09;;;-146.72;81.40
40994;BME280;26722;43.212;27.932;2023-04-23T01:51:18;55190.00;;;-146.72;81.59
40994;BME280;26722;43.212;27.932;2023-04-23T01:53:44;55209.00;;;-146.72;81.58
40994;BME280;26722;43.212;27.932;2023-04-23T01:56:09;55213.22;;;-146.72;81.09
40994;BME280;26722;43.212;27.932;2023-04-23T01:58:35;55198.44;;;-146.72;80.66
40994;BME280;26722;43.212;27.932;2023-04-23T02:01:01;55209.00;;;-146.72;80.20
40994;BME280;26722;43.212;27.932;2023-04-23T02:03:28;55217.44;;;-146.72;80.34
40994;BME280;26722;43.212;27.932;2023-04-23T02:05:54;55173.09;;;-146.72;80.45
40994;BME280;26722;43.212;27.932;2023-04-23T02:08:20;55198.44;;;-146.72;80.02
40994;BME280;26722;43.212;27.932;2023-04-23T02:10:46;55190.00;;;-146.72;80.45
40994;BME280;26722;43.212;27.932;2023-04-23T02:13:11;55200.53;;;-146.72;79.60
40994;BME280;26722;43.212;27.932;2023-04-23T02:15:37;55215.31;;;-146.72;79.31
40994;BME280;26722;43.212;27.932;2023-04-23T02:18:03;55192.09;;;-146.72;78.86
40994;BME280;26722;43.212;27.932;2023-04-23T02:20:28;55183.66;;;-146.72;78.35
40994;BME280;26722;43.212;27.932;2023-04-23T02:22:54;55183.66;;;-146.72;78.30
40994;BME280;26722;43.212;27.932;2023-04-23T02:25:20;55162.53;;;-146.72;78.28
40994;BME280;26722;43.212;27.932;2023-04-23T02:27:47;55183.66;;;-146.72;78.26
40994;BME280;26722;43.212;27.932;2023-04-23T02:30:13;55187.88;;;-146.72;77.76
40994;BME280;26722;43.212;27.932;2023-04-23T02:32:39;55177.31;;;-146.72;78.05
40994;BME280;26722;43.212;27.932;2023-04-23T02:35:06;55179.44;;;-146.72;77.63
40994;BME280;26722;43.212;27.932;2023-04-23T02:37:33;55211.09;;;-146.72;77.71
40994;BME280;26722;43.212;27.932;2023-04-23T02:39:59;55202.66;;;-146.72;78.24
40994;BME280;26722;43.212;27.932;2023-04-23T02:42:25;55183.66;;;-146.72;79.28
40994;BME280;26722;43.212;27.932;2023-04-23T02:44:51;55209.00;;;-146.72;79.85
40994;BME280;26722;43.212;27.932;2023-04-23T02:47:16;55213.22;;;-146.72;80.49
40994;BME280;26722;43.212;27.932;2023-04-23T02:49:42;55213.22;;;-146.72;81.23
40994;BME280;26722;43.212;27.932;2023-04-23T02:52:08;55213.22;;;-146.72;81.50
40994;BME280;26722;43.212;27.932;2023-04-23T02:54:33;55230.09;;;-146.72;81.82
40994;BME280;26722;43.212;27.932;2023-04-23T02:57:01;55215.31;;;-146.72;82.29
40994;BME280;26722;43.212;27.932;2023-04-23T02:59:27;55213.22;;;-146.72;82.32
40994;BME280;26722;43.212;27.932;2023-04-23T03:01:52;55228.00;;;-146.72;82.42
40994;BME280;26722;43.212;27.932;2023-04-23T03:04:18;55209.00;;;-146.72;82.58
40994;BME280;26722;43.212;27.932;2023-04-23T03:06:44;55209.00;;;-146.72;82.72
40994;BME280;26722;43.212;27.932;2023-04-23T03:09:09;55225.88;;;-146.72;82.45
40994;BME280;26722;43.212;27.932;2023-04-23T03:11:35;55187.88;;;-146.72;82.05
40994;BME280;26722;43.212;27.932;2023-04-23T03:14:01;55217.44;;;-146.72;81.67
40994;BME280;26722;43.212;27.932;2023-04-23T03:16:27;55230.09;;;-146.72;81.25
40994;BME280;26722;43.212;27.932;2023-04-23T03:18:54;55215.31;;;-146.72;81.04
40994;BME280;26722;43.212;27.932;2023-04-23T03:21:19;55213.22;;;-146.72;80.12
40994;BME280;26722;43.212;27.932;2023-04-23T03:23:45;55196.31;;;-146.72;79.07
40994;BME280;26722;43.212;27.932;2023-04-23T03:26:10;55204.75;;;-146.72;78.14
40994;BME280;26722;43.212;27.932;2023-04-23T03:28:35;55179.44;;;-146.72;76.96
40994;BME280;26722;43.212;27.932;2023-04-23T03:31:01;55200.53;;;-146.72;76.45
40994;BME280;26722;43.212;27.932;2023-04-23T03:33:26;55196.31;;;-146.72;75.85
40994;BME280;26722;43.212;27.932;2023-04-23T03:35:52;55198.44;;;-146.72;75.85
40994;BME280;26722;43.212;27.932;2023-04-23T03:38:17;55202.66;;;-146.72;75.25
40994;BME280;26722;43.212;27.932;2023-04-23T03:40:43;55204.75;;;-146.72;74.89
40994;BME280;26722;43.212;27.932;2023-04-23T03:43:09;55204.75;;;-146.72;75.11
40994;BME280;26722;43.212;27.932;2023-04-23T03:45:35;55179.44;;;-146.72;76.22
40994;BME280;26722;43.212;27.932;2023-04-23T03:48:03;55192.09;;;-146.72;77.72
40994;BME280;26722;43.212;27.932;2023-04-23T03:50:28;55183.66;;;-146.72;78.17
40994;BME280;26722;43.212;27.932;2023-04-23T03:52:54;55192.09;;;-146.72;78.43
40994;BME280;26722;43.212;27.932;2023-04-23T03:55:19;55179.44;;;-146.72;77.96
40994;BME280;26722;43.212;27.932;2023-04-23T03:57:45;55170.97;;;-146.72;77.89
40994;BME280;26722;43.212;27.932;2023-04-23T04:00:11;55181.53;;;-146.72;76.73
40994;BME280;26722;43.212;27.932;2023-04-23T04:02:37;55179.44;;;-146.72;76.39
40994;BME280;26722;43.212;27.932;2023-04-23T04:05:04;55170.97;;;-146.72;75.69
40994;BME280;26722;43.212;27.932;2023-04-23T04:07:30;55160.44;;;-146.72;74.98
40994;BME280;26722;43.212;27.932;2023-04-23T04:09:56;55151.97;;;-146.72;74.72
40994;BME280;26722;43.212;27.932;2023-04-23T04:12:21;55162.53;;;-146.72;73.64
40994;BME280;26722;43.212;27.932;2023-04-23T04:14:47;55151.97;;;-146.72;73.43
40994;BME280;26722;43.212;27.932;2023-04-23T04:17:12;55158.31;;;-146.72;72.93
40994;BME280;26722;43.212;27.932;2023-04-23T04:19:40;55166.75;;;-146.72;72.49
40994;BME280;26722;43.212;27.932;2023-04-23T04:22:06;55132.97;;;-146.72;72.12
40994;BME280;26722;43.212;27.932;2023-04-23T04:24:32;55147.75;;;-146.72;72.04
40994;BME280;26722;43.212;27.932;2023-04-23T04:26:58;55177.31;;;-146.72;72.25
40994;BME280;26722;43.212;27.932;2023-04-23T04:29:26;55175.22;;;-146.72;72.21
40994;BME280;26722;43.212;27.932;2023-04-23T04:31:53;55151.97;;;-146.72;72.25
40994;BME280;26722;43.212;27.932;2023-04-23T04:34:18;55139.31;;;-146.72;72.21
40994;BME280;26722;43.212;27.932;2023-04-23T04:36:44;55151.97;;;-146.72;72.08
40994;BME280;26722;43.212;27.932;2023-04-23T04:39:11;55139.31;;;-146.72;72.15
40994;BME280;26722;43.212;27.932;2023-04-23T04:41:37;55156.22;;;-146.72;72.28
40994;BME280;26722;43.212;27.932;2023-04-23T04:44:03;55179.44;;;-146.72;72.14
40994;BME280;26722;43.212;27.932;2023-04-23T04:46:29;55158.31;;;-146.72;72.37
40994;BME280;26722;43.212;27.932;2023-04-23T04:48:56;55160.44;;;-146.72;71.72
40994;BME280;26722;43.212;27.932;2023-04-23T04:51:21;55145.66;;;-146.72;71.25
40994;BME280;26722;43.212;27.932;2023-04-23T04:53:47;55135.09;;;-146.72;71.36
40994;BME280;26722;43.212;27.932;2023-04-23T04:56:12;55162.53;;;-146.72;70.63
40994;BME280;26722;43.212;27.932;2023-04-23T04:58:37;55126.66;;;-146.72;70.19
40994;BME280;26722;43.212;27.932;2023-04-23T05:01:03;55141.44;;;-146.72;70.17
40994;BME280;26722;43.212;27.932;2023-04-23T05:03:29;55149.88;;;-146.72;69.40
40994;BME280;26722;43.212;27.932;2023-04-23T05:05:55;55137.22;;;-146.72;69.10
40994;BME280;26722;43.212;27.932;2023-04-23T05:08:22;55141.44;;;-146.72;69.30
40994;BME280;26722;43.212;27.932;2023-04-23T05:10:48;55139.31;;;-146.72;69.35
40994;BME280;26722;43.212;27.932;2023-04-23T05:13:18;55139.31;;;-146.72;69.40
40994;BME280;26722;43.212;27.932;2023-04-23T05:15:45;55141.44;;;-146.72;70.12
40994;BME280;26722;43.212;27.932;2023-04-23T05:18:10;55120.31;;;-146.72;69.27
40994;BME280;26722;43.212;27.932;2023-04-23T05:20:36;55135.09;;;-146.72;68.78
40994;BME280;26722;43.212;27.932;2023-04-23T05:23:02;55154.09;;;-146.72;68.19
40994;BME280;26722;43.212;27.932;2023-04-23T05:25:29;55116.09;;;-146.72;67.43
40994;BME280;26722;43.212;27.932;2023-04-23T05:27:55;55120.31;;;-146.72;66.97
40994;BME280;26722;43.212;27.932;2023-04-23T05:30:20;55120.31;;;-146.72;66.57
40994;BME280;26722;43.212;27.932;2023-04-23T05:32:46;55111.88;;;-146.72;65.97
40994;BME280;26722;43.212;27.932;2023-04-23T05:35:11;55090.75;;;-146.72;65.27
40994;BME280;26722;43.212;27.932;2023-04-23T05:37:37;55088.66;;;-146.72;64.34
40994;BME280;26722;43.212;27.932;2023-04-23T05:40:02;55094.97;;;-146.72;63.04
40994;BME280;26722;43.212;27.932;2023-04-23T05:42:31;55099.19;;;-146.72;62.46
40994;BME280;26722;43.212;27.932;2023-04-23T05:44:56;55094.97;;;-146.72;62.27
40994;BME280;26722;43.212;27.932;2023-04-23T05:47:21;55111.88;;;-146.72;62.06
40994;BME280;26722;43.212;27.932;2023-04-23T05:49:47;55094.97;;;-146.72;62.24
40994;BME280;26722;43.212;27.932;2023-04-23T05:52:12;55103.44;;;-146.72;62.54
40994;BME280;26722;43.212;27.932;2023-04-23T05:54:38;55105.53;;;-146.72;62.94
40994;BME280;26722;43.212;27.932;2023-04-23T05:57:03;55107.66;;;-146.72;62.93
40994;BME280;26722;43.212;27.932;2023-04-23T05:59:30;55078.09;;;-146.72;62.42
40994;BME280;26722;43.212;27.932;2023-04-23T06:01:56;55069.66;;;-146.72;61.40
40994;BME280;26722;43.212;27.932;2023-04-23T06:04:22;55084.44;;;-146.72;59.80
40994;BME280;26722;43.212;27.932;2023-04-23T06:06:47;55084.44;;;-146.72;59.25
40994;BME280;26722;43.212;27.932;2023-04-23T06:09:13;55073.88;;;-146.72;58.42
40994;BME280;26722;43.212;27.932;2023-04-23T06:11:38;55067.53;;;-146.72;57.47
40994;BME280;26722;43.212;27.932;2023-04-23T06:14:04;55073.88;;;-146.72;57.24
40994;BME280;26722;43.212;27.932;2023-04-23T06:16:29;55065.41;;;-146.72;56.38
40994;BME280;26722;43.212;27.932;2023-04-23T06:18:55;55061.19;;;-146.72;56.75
40994;BME280;26722;43.212;27.932;2023-04-23T06:21:24;55065.41;;;-146.72;56.75
40994;BME280;26722;43.212;27.932;2023-04-23T06:23:51;55054.88;;;-146.72;55.58
40994;BME280;26722;43.212;27.932;2023-04-23T06:26:17;55067.53;;;-146.72;54.24
40994;BME280;26722;43.212;27.932;2023-04-23T06:28:44;55044.31;;;-146.72;52.92
40994;BME280;26722;43.212;27.932;2023-04-23T06:31:10;55031.66;;;-146.72;52.55
40994;BME280;26722;43.212;27.932;2023-04-23T06:33:36;55031.66;;;-146.72;52.17
40994;BME280;26722;43.212;27.932;2023-04-23T06:36:02;55052.75;;;-146.72;52.07
40994;BME280;26722;43.212;27.932;2023-04-23T06:38:28;55037.97;;;-146.72;52.42
40994;BME280;26722;43.212;27.932;2023-04-23T06:40:53;55025.31;;;-146.72;52.70
40994;BME280;26722;43.212;27.932;2023-04-23T06:43:20;55031.66;;;-146.72;52.45
40994;BME280;26722;43.212;27.932;2023-04-23T06:45:45;55031.66;;;-146.72;52.58
40994;BME280;26722;43.212;27.932;2023-04-23T06:48:10;55029.53;;;-146.72;51.74
40994;BME280;26722;43.212;27.932;2023-04-23T06:50:36;55035.88;;;-146.72;50.62
40994;BME280;26722;43.212;27.932;2023-04-23T06:53:01;55010.53;;;-146.72;51.76
40994;BME280;26722;43.212;27.932;2023-04-23T06:55:27;55048.53;;;-146.72;51.12
40994;BME280;26722;43.212;27.932;2023-04-23T06:57:53;55031.66;;;-146.72;51.86
40994;BME280;26722;43.212;27.932;2023-04-23T07:00:19;55010.53;;;-146.72;49.93
40994;BME280;26722;43.212;27.932;2023-04-23T07:02:45;55021.09;;;-146.72;49.13
40994;BME280;26722;43.212;27.932;2023-04-23T07:05:11;55014.75;;;-146.72;48.79
40994;BME280;26722;43.212;27.932;2023-04-23T07:07:36;54991.53;;;-146.72;47.99
40994;BME280;26722;43.212;27.932;2023-04-23T07:10:03;54987.31;;;-146.72;47.49
40994;BME280;26722;43.212;27.932;2023-04-23T07:12:29;54985.19;;;-146.72;47.21
40994;BME280;26722;43.212;27.932;2023-04-23T07:14:55;54993.63;;;-146.72;46.88
40994;BME280;26722;43.212;27.932;2023-04-23T07:17:20;54985.19;;;-146.72;44.45
40994;BME280;26722;43.212;27.932;2023-04-23T07:19:46;54983.09;;;-146.72;43.73
40994;BME280;26722;43.212;27.932;2023-04-23T07:22:12;54997.88;;;-146.72;42.59
40994;BME280;26722;43.212;27.932;2023-04-23T07:24:37;54972.53;;;-146.72;42.75
40994;BME280;26722;43.212;27.932;2023-04-23T07:27:03;54959.88;;;-146.72;42.13
40994;BME280;26722;43.212;27.932;2023-04-23T07:29:28;54964.09;;;-146.72;42.16
40994;BME280;26722;43.212;27.932;2023-04-23T07:31:54;54985.19;;;-146.72;41.71
40994;BME280;26722;43.212;27.932;2023-04-23T07:34:20;54976.75;;;-146.72;40.91
40994;BME280;26722;43.212;27.932;2023-04-23T07:36:45;54985.19;;;-146.72;41.36
40994;BME280;26722;43.212;27.932;2023-04-23T07:39:11;54976.75;;;-146.72;40.72
40994;BME280;26722;43.212;27.932;2023-04-23T07:41:37;54961.97;;;-146.72;41.14
40994;BME280;26722;43.212;27.932;2023-04-23T07:44:02;54968.31;;;-146.72;40.67
40994;BME280;26722;43.212;27.932;2023-04-23T07:46:28;54964.09;;;-146.72;41.15
40994;BME280;26722;43.212;27.932;2023-04-23T07:48:53;54964.09;;;-146.72;41.97
40994;BME280;26722;43.212;27.932;2023-04-23T07:51:20;54976.75;;;-146.72;42.81
40994;BME280;26722;43.212;27.932;2023-04-23T07:53:47;54970.41;;;-146.72;43.42
40994;BME280;26722;43.212;27.932;2023-04-23T07:56:15;54957.75;;;-146.72;43.72
40994;BME280;26722;43.212;27.932;2023-04-23T07:58:41;54968.31;;;-146.72;43.80
40994;BME280;26722;43.212;27.932;2023-04-23T08:01:06;54968.31;;;-146.72;42.82
40994;BME280;26722;43.212;27.932;2023-04-23T08:03:31;54976.75;;;-146.72;43.41
40994;BME280;26722;43.212;27.932;2023-04-23T08:05:57;54980.97;;;-146.72;43.29
40994;BME280;26722;43.212;27.932;2023-04-23T08:08:22;54951.41;;;-146.72;43.15
40994;BME280;26722;43.212;27.932;2023-04-23T08:10:48;54987.31;;;-146.72;42.44
40994;BME280;26722;43.212;27.932;2023-04-23T08:13:13;54978.88;;;-146.72;41.77
40994;BME280;26722;43.212;27.932;2023-04-23T08:15:39;54968.31;;;-146.72;42.24
40994;BME280;26722;43.212;27.932;2023-04-23T08:18:04;54983.09;;;-146.72;40.96
40994;BME280;26722;43.212;27.932;2023-04-23T08:20:30;54972.53;;;-146.72;40.58
40994;BME280;26722;43.212;27.932;2023-04-23T08:22:56;54966.19;;;-146.72;40.67
40994;BME280;26722;43.212;27.932;2023-04-23T08:25:22;54978.88;;;-146.72;40.50
40994;BME280;26722;43.212;27.932;2023-04-23T08:27:47;54953.53;;;-146.72;39.89
40994;BME280;26722;43.212;27.932;2023-04-23T08:30:13;54970.41;;;-146.72;39.65
40994;BME280;26722;43.212;27.932;2023-04-23T08:32:39;54959.88;;;-146.72;39.75
40994;BME280;26722;43.212;27.932;2023-04-23T08:35:07;54951.41;;;-146.72;39.36
40994;BME280;26722;43.212;27.932;2023-04-23T08:37:33;54959.88;;;-146.72;39.32
40994;BME280;26722;43.212;27.932;2023-04-23T08:40:00;54947.19;;;-146.72;38.99
40994;BME280;26722;43.212;27.932;2023-04-23T08:45:03;54964.09;;;-146.72;39.75
40994;BME280;26722;43.212;27.932;2023-04-23T08:47:31;54947.19;;;-146.72;40.77
40994;BME280;26722;43.212;27.932;2023-04-23T08:49:58;54947.19;;;-146.72;40.41
40994;BME280;26722;43.212;27.932;2023-04-23T08:52:25;54961.97;;;-146.72;40.88
40994;BME280;26722;43.212;27.932;2023-04-23T08:54:59;54959.88;;;-146.72;40.86
40994;BME280;26722;43.212;27.932;2023-04-23T08:57:25;54955.63;;;-146.72;40.10
40994;BME280;26722;43.212;27.932;2023-04-23T08:59:51;54961.97;;;-146.72;41.72
40994;BME280;26722;43.212;27.932;2023-04-23T09:02:17;54968.31;;;-146.72;41.91
40994;BME280;26722;43.212;27.932;2023-04-23T09:04:44;54964.09;;;-146.72;41.92
40994;BME280;26722;43.212;27.932;2023-04-23T09:07:11;54964.09;;;-146.72;41.63
40994;BME280;26722;43.212;27.932;2023-04-23T09:09:37;54957.75;;;-146.72;41.17
40994;BME280;26722;43.212;27.932;2023-04-23T09:12:04;54959.88;;;-146.72;40.42
40994;BME280;26722;43.212;27.932;2023-04-23T09:14:31;54959.88;;;-146.72;39.95
40994;BME280;26722;43.212;27.932;2023-04-23T09:16:56;54947.19;;;-146.72;39.11
40994;BME280;26722;43.212;27.932;2023-04-23T09:19:24;54968.31;;;-146.72;39.46
40994;BME280;26722;43.212;27.932;2023-04-23T09:21:52;54951.41;;;-146.72;39.36
40994;BME280;26722;43.212;27.932;2023-04-23T09:24:21;54959.88;;;-146.72;39.40
40994;BME280;26722;43.212;27.932;2023-04-23T09:26:48;54968.31;;;-146.72;38.57
40994;BME280;26722;43.212;27.932;2023-04-23T09:29:21;54959.88;;;-146.72;38.87
40994;BME280;26722;43.212;27.932;2023-04-23T09:32:02;54957.75;;;-146.72;39.29
40994;BME280;26722;43.212;27.932;2023-04-23T09:34:28;54951.41;;;-146.72;39.46
40994;BME280;26722;43.212;27.932;2023-04-23T09:36:54;54955.63;;;-146.72;39.39
40994;BME280;26722;43.212;27.932;2023-04-23T09:39:22;54947.19;;;-146.72;39.66
40994;BME280;26722;43.212;27.932;2023-04-23T09:41:50;54964.09;;;-146.72;38.83
40994;BME280;26722;43.212;27.932;2023-04-23T09:44:17;54955.63;;;-146.72;38.77
40994;BME280;26722;43.212;27.932;2023-04-23T09:46:43;54964.09;;;-146.72;38.96
40994;BME280;26722;43.212;27.932;2023-04-23T09:49:10;54964.09;;;-146.72;38.54
40994;BME280;26722;43.212;27.932;2023-04-23T09:51:45;54945.09;;;-146.72;39.32
40994;BME280;26722;43.212;27.932;2023-04-23T09:54:12;54974.63;;;-146.72;39.06
40994;BME280;26722;43.212;27.932;2023-04-23T09:56:38;54968.31;;;-146.72;38.32
40994;BME280;26722;43.212;27.932;2023-04-23T09:59:24;54959.88;;;-146.72;38.11
40994;BME280;26722;43.212;27.932;2023-04-23T10:01:51;54966.19;;;-146.72;38.34
40994;BME280;26722;43.212;27.932;2023-04-23T10:04:18;54938.75;;;-146.72;38.46
40994;BME280;26722;43.212;27.932;2023-04-23T10:06:58;54951.41;;;-146.72;37.44
40994;BME280;26722;43.212;27.932;2023-04-23T10:09:25;54966.19;;;-146.72;38.74
40994;BME280;26722;43.212;27.932;2023-04-23T10:11:51;54959.88;;;-146.72;37.77
40994;BME280;26722;43.212;27.932;2023-04-23T10:14:19;54955.63;;;-146.72;37.22
40994;BME280;26722;43.212;27.932;2023-04-23T10:16:45;54976.75;;;-146.72;37.57
40994;BME280;26722;43.212;27.932;2023-04-23T10:19:13;54966.19;;;-146.72;37.56
40994;BME280;26722;43.212;27.932;2023-04-23T10:21:40;54964.09;;;-146.72;37.73
40994;BME280;26722;43.212;27.932;2023-04-23T10:24:08;54985.19;;;-146.72;37.89
40994;BME280;26722;43.212;27.932;2023-04-23T10:26:37;54974.63;;;-146.72;37.99
40994;BME280;26722;43.212;27.932;2023-04-23T10:29:08;54978.88;;;-146.72;38.49
40994;BME280;26722;43.212;27.932;2023-04-23T10:31:37;54980.97;;;-146.72;39.67
40994;BME280;26722;43.212;27.932;2023-04-23T10:34:04;54978.88;;;-146.72;40.00
40994;BME280;26722;43.212;27.932;2023-04-23T10:36:32;54989.41;;;-146.72;40.39
40994;BME280;26722;43.212;27.932;2023-04-23T10:38:57;54997.88;;;-146.72;40.96
40994;BME280;26722;43.212;27.932;2023-04-23T10:41:36;54997.88;;;-146.72;41.31
40994;BME280;26722;43.212;27.932;2023-04-23T10:44:04;55002.09;;;-146.72;41.80
40994;BME280;26722;43.212;27.932;2023-04-23T10:46:31;54989.41;;;-146.72;41.74
40994;BME280;26722;43.212;27.932;2023-04-23T10:51:34;55006.31;;;-146.72;42.57
40994;BME280;26722;43.212;27.932;2023-04-23T10:54:02;55010.53;;;-146.72;42.87
40994;BME280;26722;43.212;27.932;2023-04-23T10:56:27;54974.63;;;-146.72;41.86
40994;BME280;26722;43.212;27.932;2023-04-23T10:58:53;54980.97;;;-146.72;41.13
40994;BME280;26722;43.212;27.932;2023-04-23T11:01:18;55002.09;;;-146.72;40.56
40994;BME280;26722;43.212;27.932;2023-04-23T11:03:46;54989.41;;;-146.72;40.80
40994;BME280;26722;43.212;27.932;2023-04-23T11:06:49;54987.31;;;-146.72;40.79
40994;BME280;26722;43.212;27.932;2023-04-23T11:09:28;54978.88;;;-146.72;40.39
40994;BME280;26722;43.212;27.932;2023-04-23T11:11:58;54968.31;;;-146.72;39.78
40994;BME280;26722;43.212;27.932;2023-04-23T11:14:41;54964.09;;;-146.72;39.33
40994;BME280;26722;43.212;27.932;2023-04-23T11:17:06;54959.88;;;-146.72;40.22
40994;BME280;26722;43.212;27.932;2023-04-23T11:19:38;54968.31;;;-146.72;40.88
40994;BME280;26722;43.212;27.932;2023-04-23T11:22:09;54961.97;;;-146.72;41.33
40994;BME280;26722;43.212;27.932;2023-04-23T11:24:38;54942.97;;;-146.72;41.70
40994;BME280;26722;43.212;27.932;2023-04-23T11:27:14;54959.88;;;-146.72;42.35
40994;BME280;26722;43.212;27.932;2023-04-23T11:29:43;54959.88;;;-146.72;43.82
40994;BME280;26722;43.212;27.932;2023-04-23T11:32:10;54968.31;;;-146.72;44.65
40994;BME280;26722;43.212;27.932;2023-04-23T11:34:41;54968.31;;;-146.72;46.23
40994;BME280;26722;43.212;27.932;2023-04-23T11:37:13;54968.31;;;-146.72;45.52
40994;BME280;26722;43.212;27.932;2023-04-23T11:39:39;54961.97;;;-146.72;46.61
40994;BME280;26722;43.212;27.932;2023-04-23T11:42:15;54968.31;;;-146.72;46.55
40994;BME280;26722;43.212;27.932;2023-04-23T11:44:43;54970.41;;;-146.72;47.20
40994;BME280;26722;43.212;27.932;2023-04-23T11:47:11;54959.88;;;-146.72;47.60
40994;BME280;26722;43.212;27.932;2023-04-23T11:49:38;54961.97;;;-146.72;48.22
40994;BME280;26722;43.212;27.932;2023-04-23T11:52:05;54980.97;;;-146.72;48.35
40994;BME280;26722;43.212;27.932;2023-04-23T11:54:31;54983.09;;;-146.72;47.02
40994;BME280;26722;43.212;27.932;2023-04-23T11:56:57;54976.75;;;-146.72;48.91
40994;BME280;26722;43.212;27.932;2023-04-23T11:59:24;54983.09;;;-146.72;48.29
40994;BME280;26722;43.212;27.932;2023-04-23T12:01:55;54968.31;;;-146.72;47.24
40994;BME280;26722;43.212;27.932;2023-04-23T12:04:23;54968.31;;;-146.72;48.15
40994;BME280;26722;43.212;27.932;2023-04-23T12:06:50;54974.63;;;-146.72;48.67
40994;BME280;26722;43.212;27.932;2023-04-23T12:09:17;54968.31;;;-146.72;49.43
40994;BME280;26722;43.212;27.932;2023-04-23T12:11:44;54985.19;;;-146.72;50.63
40994;BME280;26722;43.212;27.932;2023-04-23T12:14:12;54985.19;;;-146.72;52.36
40994;BME280;26722;43.212;27.932;2023-04-23T12:16:40;54978.88;;;-146.72;54.24
40994;BME280;26722;43.212;27.932;2023-04-23T12:19:14;54980.97;;;-146.72;55.27
40994;BME280;26722;43.212;27.932;2023-04-23T12:21:48;54997.88;;;-146.72;55.42
40994;BME280;26722;43.212;27.932;2023-04-23T12:24:14;54972.53;;;-146.72;55.80
40994;BME280;26722;43.212;27.932;2023-04-23T12:26:40;54980.97;;;-146.72;56.15
40994;BME280;26722;43.212;27.932;2023-04-23T12:29:06;54997.88;;;-146.72;56.16
40994;BME280;26722;43.212;27.932;2023-04-23T12:31:32;54999.97;;;-146.72;55.83
40994;BME280;26722;43.212;27.932;2023-04-23T12:34:05;54989.41;;;-146.72;56.04